sensor_id;sensor_type;location;lat;lon;timestamp;pressure;altitude;pressure_sealevel;temperature;humidity
6853;BME280;3465;42.144;24.722;2023-04-25T00:00:32;146480.88;;;14.25;100.00
6853;BME280;3465;42.144;24.722;2023-04-25T00:02:57;146490.91;;;14.29;100.00
6853;BME280;3465;42.144;24.722;2023-04-25T00:05:25;146454.41;;;14.15;100.00
6853;BME280;3465;42.144;24.722;2023-04-25T00:07:51;146460.72;;;14.17;100.00
6853;BME280;3465;42.144;24.722;2023-04-25T00:10:16;146465.72;;;14.19;100.00
6853;BME280;3465;42.144;24.722;2023-04-25T00:12:42;146429.34;;;14.05;100.00
6853;BME280;3465;42.144;24.722;2023-04-25T00:15:08;146405.41;;;13.95;100.00
6853;BME280;3465;42.144;24.722;2023-04-25T00:17:34;146430.56;;;14.05;100.00
6853;BME280;3465;42.144;24.722;2023-04-25T00:20:01;146454.41;;;14.15;100.00
6853;BME280;3465;42.144;24.722;2023-04-25T00:22:30;146473.28;;;14.22;100.00
6853;BME280;3465;42.144;24.722;2023-04-25T00:24:55;146464.50;;;14.19;100.00
6853;BME280;3465;42.144;24.722;2023-04-25T00:27:22;146449.44;;;14.13;100.00
6853;BME280;3465;42.144;24.722;2023-04-25T00:29:47;146465.72;;;14.19;100.00
6853;BME280;3465;42.144;24.722;2023-04-25T00:32:13;146500.97;;;14.33;100.00
6853;BME280;3465;42.144;24.722;2023-04-25T00:34:38;146495.94;;;14.31;100.00
6853;BME280;3465;42.144;24.722;2023-04-25T00:37:03;146438.09;;;14.08;100.00
6853;BME280;3465;42.144;24.722;2023-04-25T00:39:29;146404.19;;;13.95;100.00
6853;BME280;3465;42.144;24.722;2023-04-25T00:41:55;146416.75;;;14.00;100.00
6853;BME280;3465;42.144;24.722;2023-04-25T00:44:21;146425.53;;;14.03;100.00
6853;BME280;3465;42.144;24.722;2023-04-25T00:46:47;146399.16;;;13.93;100.00
6853;BME280;3465;42.144;24.722;2023-04-25T00:49:13;146416.75;;;14.00;100.00
6853;BME280;3465;42.144;24.722;2023-04-25T00:51:41;146428.06;;;14.04;100.00
6853;BME280;3465;42.144;24.722;2023-04-25T00:54:11;146430.56;;;14.05;100.00
6853;BME280;3465;42.144;24.722;2023-04-25T00:56:37;146461.94;;;14.18;100.00
6853;BME280;3465;42.144;24.722;2023-04-25T00:59:03;146461.94;;;14.18;100.00
6853;BME280;3465;42.144;24.722;2023-04-25T01:01:28;146456.97;;;14.16;100.00
6853;BME280;3465;42.144;24.722;2023-04-25T01:03:54;146431.81;;;14.06;100.00
6853;BME280;3465;42.144;24.722;2023-04-25T01:06:19;146431.81;;;14.06;100.00
6853;BME280;3465;42.144;24.722;2023-04-25T01:08:45;146446.88;;;14.12;100.00
6853;BME280;3465;42.144;24.722;2023-04-25T01:11:10;146436.88;;;14.08;100.00
6853;BME280;3465;42.144;24.722;2023-04-25T01:13:36;146443.13;;;14.10;100.00
6853;BME280;3465;42.144;24.722;2023-04-25T01:16:02;146465.72;;;14.19;100.00
6853;BME280;3465;42.144;24.722;2023-04-25T01:18:28;146451.94;;;14.14;100.00
6853;BME280;3465;42.144;24.722;2023-04-25T01:20:54;146451.94;;;14.14;100.00
6853;BME280;3465;42.144;24.722;2023-04-25T01:23:22;146428.06;;;14.04;100.00
6853;BME280;3465;42.144;24.722;2023-04-25T01:25:48;146445.63;;;14.11;100.00
6853;BME280;3465;42.144;24.722;2023-04-25T01:28:14;146433.09;;;14.06;100.00
6853;BME280;3465;42.144;24.722;2023-04-25T01:30:41;146439.34;;;14.09;100.00
6853;BME280;3465;42.144;24.722;2023-04-25T01:33:08;146404.19;;;13.95;100.00
6853;BME280;3465;42.144;24.722;2023-04-25T01:35:33;146433.09;;;14.06;100.00
6853;BME280;3465;42.144;24.722;2023-04-25T01:37:59;146379.06;;;13.85;100.00
6853;BME280;3465;42.144;24.722;2023-04-25T01:40:24;146384.09;;;13.87;100.00
6853;BME280;3465;42.144;24.722;2023-04-25T01:42:51;146407.97;;;13.96;100.00
6853;BME280;3465;42.144;24.722;2023-04-25T01:45:17;146361.47;;;13.78;100.00
6853;BME280;3465;42.144;24.722;2023-04-25T01:47:43;146411.72;;;13.98;100.00
6853;BME280;3465;42.144;24.722;2023-04-25T01:50:09;146413.00;;;13.98;100.00
6853;BME280;3465;42.144;24.722;2023-04-25T01:52:36;146433.09;;;14.06;100.00
6853;BME280;3465;42.144;24.722;2023-04-25T01:55:02;146404.19;;;13.95;100.00
6853;BME280;3465;42.144;24.722;2023-04-25T01:57:28;146395.41;;;13.91;100.00
6853;BME280;3465;42.144;24.722;2023-04-25T01:59:59;146414.22;;;13.99;100.00
6853;BME280;3465;42.144;24.722;2023-04-25T02:02:28;146424.28;;;14.03;100.00
6853;BME280;3465;42.144;24.722;2023-04-25T02:04:53;146418.00;;;14.00;100.00
6853;BME280;3465;42.144;24.722;2023-04-25T02:07:20;146421.75;;;14.02;100.00
6853;BME280;3465;42.144;24.722;2023-04-25T02:09:45;146445.63;;;14.11;100.00
6853;BME280;3465;42.144;24.722;2023-04-25T02:12:11;146418.00;;;14.00;100.00
6853;BME280;3465;42.144;24.722;2023-04-25T02:14:36;146369.06;;;13.81;100.00
6853;BME280;3465;42.144;24.722;2023-04-25T02:17:02;146396.66;;;13.92;100.00
6853;BME280;3465;42.144;24.722;2023-04-25T02:19:27;146391.63;;;13.90;100.00
6853;BME280;3465;42.144;24.722;2023-04-25T02:21:53;146379.06;;;13.85;100.00
6853;BME280;3465;42.144;24.722;2023-04-25T02:24:18;146345.13;;;13.71;100.00
6853;BME280;3465;42.144;24.722;2023-04-25T02:26:46;146333.84;;;13.67;100.00
6853;BME280;3465;42.144;24.722;2023-04-25T02:29:12;146340.16;;;13.69;100.00
6853;BME280;3465;42.144;24.722;2023-04-25T02:31:38;146350.19;;;13.73;100.00
6853;BME280;3465;42.144;24.722;2023-04-25T02:34:03;146330.09;;;13.65;100.00
6853;BME280;3465;42.144;24.722;2023-04-25T02:36:29;146318.78;;;13.61;100.00
6853;BME280;3465;42.144;24.722;2023-04-25T02:38:57;146340.16;;;13.69;100.00
6853;BME280;3465;42.144;24.722;2023-04-25T02:41:22;146348.97;;;13.73;100.00
6853;BME280;3465;42.144;24.722;2023-04-25T02:43:48;146325.06;;;13.63;100.00
6853;BME280;3465;42.144;24.722;2023-04-25T02:46:14;146336.41;;;13.68;100.00
6853;BME280;3465;42.144;24.722;2023-04-25T02:48:39;146333.84;;;13.67;100.00
6853;BME280;3465;42.144;24.722;2023-04-25T02:51:05;146306.22;;;13.56;100.00
6853;BME280;3465;42.144;24.722;2023-04-25T02:53:30;146328.88;;;13.65;100.00
6853;BME280;3465;42.144;24.722;2023-04-25T02:55:55;146296.22;;;13.52;100.00
6853;BME280;3465;42.144;24.722;2023-04-25T02:58:24;146304.97;;;13.55;100.00
6853;BME280;3465;42.144;24.722;2023-04-25T03:00:50;146307.50;;;13.56;100.00
6853;BME280;3465;42.144;24.722;2023-04-25T03:03:15;146272.38;;;13.42;100.00
6853;BME280;3465;42.144;24.722;2023-04-25T03:05:43;146264.78;;;13.39;100.00
6853;BME280;3465;42.144;24.722;2023-04-25T03:08:09;146232.19;;;13.26;100.00
6853;BME280;3465;42.144;24.722;2023-04-25T03:10:34;146229.66;;;13.25;100.00
6853;BME280;3465;42.144;24.722;2023-04-25T03:13:00;146193.25;;;13.11;100.00
6853;BME280;3465;42.144;24.722;2023-04-25T03:15:25;146218.38;;;13.21;100.00
6853;BME280;3465;42.144;24.722;2023-04-25T03:17:50;146239.72;;;13.29;100.00
6853;BME280;3465;42.144;24.722;2023-04-25T03:20:16;146210.84;;;13.18;100.00
6853;BME280;3465;42.144;24.722;2023-04-25T03:22:41;146229.66;;;13.25;100.00
6853;BME280;3465;42.144;24.722;2023-04-25T03:25:07;146225.91;;;13.24;100.00
6853;BME280;3465;42.144;24.722;2023-04-25T03:27:33;146252.28;;;13.34;100.00
6853;BME280;3465;42.144;24.722;2023-04-25T03:30:01;146203.31;;;13.15;100.00
6853;BME280;3465;42.144;24.722;2023-04-25T03:32:26;146225.91;;;13.24;100.00
6853;BME280;3465;42.144;24.722;2023-04-25T03:34:52;146208.34;;;13.17;100.00
6853;BME280;3465;42.144;24.722;2023-04-25T03:37:17;146192.03;;;13.10;100.00
6853;BME280;3465;42.144;24.722;2023-04-25T03:39:43;146214.59;;;13.19;100.00
6853;BME280;3465;42.144;24.722;2023-04-25T03:42:08;146223.41;;;13.23;100.00
6853;BME280;3465;42.144;24.722;2023-04-25T03:44:34;146215.88;;;13.20;100.00
6853;BME280;3465;42.144;24.722;2023-04-25T03:46:59;146215.88;;;13.20;100.00
6853;BME280;3465;42.144;24.722;2023-04-25T03:49:25;146238.44;;;13.29;100.00
6853;BME280;3465;42.144;24.722;2023-04-25T03:51:50;146208.34;;;13.17;100.00
6853;BME280;3465;42.144;24.722;2023-04-25T03:54:15;146229.66;;;13.25;100.00
6853;BME280;3465;42.144;24.722;2023-04-25T03:56:41;146257.25;;;13.36;100.00
6853;BME280;3465;42.144;24.722;2023-04-25T03:59:06;146239.72;;;13.29;100.00
6853;BME280;3465;42.144;24.722;2023-04-25T04:01:32;146225.91;;;13.24;100.00
6853;BME280;3465;42.144;24.722;2023-04-25T04:03:58;146199.56;;;13.13;100.00
6853;BME280;3465;42.144;24.722;2023-04-25T04:06:23;146200.78;;;13.14;100.00
6853;BME280;3465;42.144;24.722;2023-04-25T04:08:49;146175.72;;;13.04;100.00
6853;BME280;3465;42.144;24.722;2023-04-25T04:11:14;146208.34;;;13.17;100.00
6853;BME280;3465;42.144;24.722;2023-04-25T04:13:39;146212.09;;;13.18;100.00
6853;BME280;3465;42.144;24.722;2023-04-25T04:16:05;146149.28;;;12.93;100.00
6853;BME280;3465;42.144;24.722;2023-04-25T04:18:30;146243.47;;;13.31;100.00
6853;BME280;3465;42.144;24.722;2023-04-25T04:20:56;146268.59;;;13.41;100.00
6853;BME280;3465;42.144;24.722;2023-04-25T04:23:23;146325.06;;;13.63;100.00
6853;BME280;3465;42.144;24.722;2023-04-25T04:25:48;146350.19;;;13.73;100.00
6853;BME280;3465;42.144;24.722;2023-04-25T04:28:14;146367.78;;;13.80;100.00
6853;BME280;3465;42.144;24.722;2023-04-25T04:30:39;146405.41;;;13.95;100.00
6853;BME280;3465;42.144;24.722;2023-04-25T04:33:06;146405.41;;;13.95;100.00
6853;BME280;3465;42.144;24.722;2023-04-25T04:35:32;146411.72;;;13.98;100.00
6853;BME280;3465;42.144;24.722;2023-04-25T04:37:58;146443.13;;;14.10;100.00
6853;BME280;3465;42.144;24.722;2023-04-25T04:40:23;146461.94;;;14.18;100.00
6853;BME280;3465;42.144;24.722;2023-04-25T04:42:48;146453.19;;;14.14;100.00
6853;BME280;3465;42.144;24.722;2023-04-25T04:45:14;146478.34;;;14.24;100.00
6853;BME280;3465;42.144;24.722;2023-04-25T04:47:41;146485.88;;;14.27;100.00
6853;BME280;3465;42.144;24.722;2023-04-25T04:50:07;146484.66;;;14.27;100.00
6853;BME280;3465;42.144;24.722;2023-04-25T04:52:37;146488.41;;;14.28;100.00
6853;BME280;3465;42.144;24.722;2023-04-25T04:55:03;146489.69;;;14.29;100.00
6853;BME280;3465;42.144;24.722;2023-04-25T04:57:29;146474.50;;;14.23;100.00
6853;BME280;3465;42.144;24.722;2023-04-25T04:59:56;146429.34;;;14.05;100.00
6853;BME280;3465;42.144;24.722;2023-04-25T05:02:21;146424.28;;;14.03;100.00
6853;BME280;3465;42.144;24.722;2023-04-25T05:04:47;146441.84;;;14.10;100.00
6853;BME280;3465;42.144;24.722;2023-04-25T05:07:12;146456.97;;;14.16;100.00
6853;BME280;3465;42.144;24.722;2023-04-25T05:09:38;146456.97;;;14.16;100.00
6853;BME280;3465;42.144;24.722;2023-04-25T05:12:03;146440.63;;;14.09;100.00
6853;BME280;3465;42.144;24.722;2023-04-25T05:14:29;146433.09;;;14.06;100.00
6853;BME280;3465;42.144;24.722;2023-04-25T05:16:54;146411.72;;;13.98;100.00
6853;BME280;3465;42.144;24.722;2023-04-25T05:19:20;146424.28;;;14.03;100.00
6853;BME280;3465;42.144;24.722;2023-04-25T05:21:45;146461.94;;;14.18;100.00
6853;BME280;3465;42.144;24.722;2023-04-25T05:24:11;146500.97;;;14.33;100.00
6853;BME280;3465;42.144;24.722;2023-04-25T05:26:37;146522.31;;;14.42;100.00
6853;BME280;3465;42.144;24.722;2023-04-25T05:29:02;146590.19;;;14.69;100.00
6853;BME280;3465;42.144;24.722;2023-04-25T05:31:28;146617.84;;;14.80;100.00
6853;BME280;3465;42.144;24.722;2023-04-25T05:33:53;146620.34;;;14.81;100.00
6853;BME280;3465;42.144;24.722;2023-04-25T05:36:19;146617.84;;;14.80;100.00
6853;BME280;3465;42.144;24.722;2023-04-25T05:38:45;146630.41;;;14.85;100.00
6853;BME280;3465;42.144;24.722;2023-04-25T05:41:10;146648.00;;;14.92;100.00
6853;BME280;3465;42.144;24.722;2023-04-25T05:43:35;146570.09;;;14.61;100.00
6853;BME280;3465;42.144;24.722;2023-04-25T05:46:01;146634.19;;;14.87;100.00
6853;BME280;3465;42.144;24.722;2023-04-25T05:48:26;146768.72;;;15.40;100.00
6853;BME280;3465;42.144;24.722;2023-04-25T05:50:52;146990.13;;;16.29;100.00
6853;BME280;3465;42.144;24.722;2023-04-25T05:53:19;147141.25;;;16.89;100.00
6853;BME280;3465;42.144;24.722;2023-04-25T05:55:47;147367.97;;;17.79;100.00
6853;BME280;3465;42.144;24.722;2023-04-25T05:58:12;147781.66;;;19.44;100.00
6853;BME280;3465;42.144;24.722;2023-04-25T06:00:38;148307.03;;;21.53;100.00
6853;BME280;3465;42.144;24.722;2023-04-25T06:03:03;148752.31;;;23.29;95.08
6853;BME280;3465;42.144;24.722;2023-04-25T06:05:29;149028.31;;;24.39;79.98
6853;BME280;3465;42.144;24.722;2023-04-25T06:07:54;148962.47;;;24.13;78.43
6853;BME280;3465;42.144;24.722;2023-04-25T06:10:20;149039.72;;;24.43;79.48
6853;BME280;3465;42.144;24.722;2023-04-25T06:12:46;149314.75;;;25.52;73.13
6853;BME280;3465;42.144;24.722;2023-04-25T06:15:12;149245.00;;;25.24;71.13
6853;BME280;3465;42.144;24.722;2023-04-25T06:17:37;148957.38;;;24.11;74.27
6853;BME280;3465;42.144;24.722;2023-04-25T06:20:03;148766.19;;;23.35;77.23
6853;BME280;3465;42.144;24.722;2023-04-25T06:22:29;148840.88;;;23.64;76.64
6853;BME280;3465;42.144;24.722;2023-04-25T06:24:54;149130.94;;;24.79;72.88
6853;BME280;3465;42.144;24.722;2023-04-25T06:27:22;149600.19;;;26.65;65.66
6853;BME280;3465;42.144;24.722;2023-04-25T06:29:47;149895.91;;;27.82;59.70
6853;BME280;3465;42.144;24.722;2023-04-25T06:32:13;150256.81;;;29.24;53.48
6853;BME280;3465;42.144;24.722;2023-04-25T06:34:38;150601.50;;;30.60;50.30
6853;BME280;3465;42.144;24.722;2023-04-25T06:37:04;150638.41;;;30.75;46.98
6853;BME280;3465;42.144;24.722;2023-04-25T06:39:29;150755.50;;;31.21;46.61
6853;BME280;3465;42.144;24.722;2023-04-25T06:41:54;150528.97;;;30.32;47.10
6853;BME280;3465;42.144;24.722;2023-04-25T06:44:20;150728.75;;;31.11;45.47
6853;BME280;3465;42.144;24.722;2023-04-25T06:46:48;150890.47;;;31.74;43.63
6853;BME280;3465;42.144;24.722;2023-04-25T06:49:13;151030.56;;;32.30;41.88
6853;BME280;3465;42.144;24.722;2023-04-25T06:51:38;150726.22;;;31.10;43.68
6853;BME280;3465;42.144;24.722;2023-04-25T06:54:05;150507.38;;;30.23;46.52
6853;BME280;3465;42.144;24.722;2023-04-25T06:56:31;150663.88;;;30.85;44.63
6853;BME280;3465;42.144;24.722;2023-04-25T06:58:56;150819.16;;;31.46;43.50
6853;BME280;3465;42.144;24.722;2023-04-25T07:01:22;151184.78;;;32.90;40.60
6853;BME280;3465;42.144;24.722;2023-04-25T07:03:47;151367.09;;;33.62;38.13
6853;BME280;3465;42.144;24.722;2023-04-25T07:06:12;151451.25;;;33.95;37.68
6853;BME280;3465;42.144;24.722;2023-04-25T07:08:38;151601.78;;;34.54;35.67
6853;BME280;3465;42.144;24.722;2023-04-25T07:11:03;151601.78;;;34.54;35.58
6853;BME280;3465;42.144;24.722;2023-04-25T07:13:28;151495.88;;;34.13;36.04
6853;BME280;3465;42.144;24.722;2023-04-25T07:15:55;151365.81;;;33.62;36.73
6853;BME280;3465;42.144;24.722;2023-04-25T07:18:21;151053.56;;;32.39;39.30
6853;BME280;3465;42.144;24.722;2023-04-25T07:20:46;150742.78;;;31.16;41.91
6853;BME280;3465;42.144;24.722;2023-04-25T07:23:12;150665.16;;;30.86;42.91
6853;BME280;3465;42.144;24.722;2023-04-25T07:25:37;150408.13;;;29.84;44.61
6853;BME280;3465;42.144;24.722;2023-04-25T07:28:02;150247.91;;;29.21;46.53
6853;BME280;3465;42.144;24.722;2023-04-25T07:30:28;150557.00;;;30.43;43.76
6853;BME280;3465;42.144;24.722;2023-04-25T07:32:53;150708.41;;;31.03;42.57
6853;BME280;3465;42.144;24.722;2023-04-25T07:35:19;150778.41;;;31.30;41.72
6853;BME280;3465;42.144;24.722;2023-04-25T07:37:44;150770.75;;;31.27;40.57
6853;BME280;3465;42.144;24.722;2023-04-25T07:40:10;150451.34;;;30.01;41.86
6853;BME280;3465;42.144;24.722;2023-04-25T07:42:35;149728.31;;;27.16;48.61
6853;BME280;3465;42.144;24.722;2023-04-25T07:45:01;149960.72;;;28.08;49.27
6853;BME280;3465;42.144;24.722;2023-04-25T07:47:27;150083.97;;;28.56;47.47
6853;BME280;3465;42.144;24.722;2023-04-25T07:49:53;149931.50;;;27.96;47.30
6853;BME280;3465;42.144;24.722;2023-04-25T07:52:18;149592.53;;;26.62;50.91
6853;BME280;3465;42.144;24.722;2023-04-25T07:54:43;149491.06;;;26.22;53.41
6853;BME280;3465;42.144;24.722;2023-04-25T07:57:09;149375.59;;;25.76;53.98
6853;BME280;3465;42.144;24.722;2023-04-25T07:59:34;149355.31;;;25.68;54.83
6853;BME280;3465;42.144;24.722;2023-04-25T08:02:01;149678.81;;;26.96;52.04
6853;BME280;3465;42.144;24.722;2023-04-25T08:04:27;150124.63;;;28.72;47.25
6853;BME280;3465;42.144;24.722;2023-04-25T08:06:53;150736.38;;;31.14;42.00
6853;BME280;3465;42.144;24.722;2023-04-25T08:09:19;151215.38;;;33.02;37.53
6853;BME280;3465;42.144;24.722;2023-04-25T08:11:45;151475.47;;;34.05;34.58
6853;BME280;3465;42.144;24.722;2023-04-25T08:14:11;151175.84;;;32.87;36.50
6853;BME280;3465;42.144;24.722;2023-04-25T08:16:37;151082.81;;;32.50;37.23
6853;BME280;3465;42.144;24.722;2023-04-25T08:19:02;151288.00;;;33.31;35.82
6853;BME280;3465;42.144;24.722;2023-04-25T08:21:28;151303.28;;;33.37;33.38
6853;BME280;3465;42.144;24.722;2023-04-25T08:23:53;151654.06;;;34.75;32.82
6853;BME280;3465;42.144;24.722;2023-04-25T08:26:19;152070.34;;;36.39;30.34
6853;BME280;3465;42.144;24.722;2023-04-25T08:28:45;152138.00;;;36.65;29.37
6853;BME280;3465;42.144;24.722;2023-04-25T08:31:11;151832.81;;;35.45;29.86
6853;BME280;3465;42.144;24.722;2023-04-25T08:33:36;151368.34;;;33.63;33.26
6853;BME280;3465;42.144;24.722;2023-04-25T08:36:02;150946.53;;;31.96;35.90
6853;BME280;3465;42.144;24.722;2023-04-25T08:38:28;150355.97;;;29.64;41.00
6853;BME280;3465;42.144;24.722;2023-04-25T08:40:54;150028.06;;;28.34;44.56
6853;BME280;3465;42.144;24.722;2023-04-25T08:43:20;149655.97;;;26.87;48.81
6853;BME280;3465;42.144;24.722;2023-04-25T08:45:46;149473.28;;;26.15;51.54
6853;BME280;3465;42.144;24.722;2023-04-25T08:48:13;149190.53;;;25.03;55.28
6853;BME280;3465;42.144;24.722;2023-04-25T08:50:55;149011.88;;;24.32;58.76
6853;BME280;3465;42.144;24.722;2023-04-25T08:53:25;148924.47;;;23.97;60.22
6853;BME280;3465;42.144;24.722;2023-04-25T08:55:53;148824.44;;;23.58;62.76
6853;BME280;3465;42.144;24.722;2023-04-25T08:58:19;148766.19;;;23.35;63.95
6853;BME280;3465;42.144;24.722;2023-04-25T09:00:46;148661.13;;;22.93;64.44
6853;BME280;3465;42.144;24.722;2023-04-25T09:03:12;148651.03;;;22.89;65.70
6853;BME280;3465;42.144;24.722;2023-04-25T09:05:39;148605.47;;;22.71;68.42
6853;BME280;3465;42.144;24.722;2023-04-25T09:08:05;148529.56;;;22.41;68.29
6853;BME280;3465;42.144;24.722;2023-04-25T09:10:31;148458.72;;;22.13;70.67
6853;BME280;3465;42.144;24.722;2023-04-25T09:13:10;148415.75;;;21.96;72.77
6853;BME280;3465;42.144;24.722;2023-04-25T09:15:54;148341.13;;;21.66;71.52
6853;BME280;3465;42.144;24.722;2023-04-25T09:18:26;148371.53;;;21.78;72.94
6853;BME280;3465;42.144;24.722;2023-04-25T09:20:54;148347.47;;;21.69;72.46
6853;BME280;3465;42.144;24.722;2023-04-25T09:23:21;148386.69;;;21.84;71.17
6853;BME280;3465;42.144;24.722;2023-04-25T09:25:48;148428.41;;;22.01;73.12
6853;BME280;3465;42.144;24.722;2023-04-25T09:28:14;148506.81;;;22.32;71.70
6853;BME280;3465;42.144;24.722;2023-04-25T09:30:39;148676.34;;;22.99;68.10
6853;BME280;3465;42.144;24.722;2023-04-25T09:33:05;149039.72;;;24.43;64.04
6853;BME280;3465;42.144;24.722;2023-04-25T09:35:36;149374.31;;;25.76;58.21
6853;BME280;3465;42.144;24.722;2023-04-25T09:40:42;149546.84;;;26.44;54.80
6853;BME280;3465;42.144;24.722;2023-04-25T09:43:22;149576.03;;;26.55;54.33
6853;BME280;3465;42.144;24.722;2023-04-25T09:45:48;149680.09;;;26.97;52.72
6853;BME280;3465;42.144;24.722;2023-04-25T09:48:18;150012.78;;;28.28;50.26
6853;BME280;3465;42.144;24.722;2023-04-25T09:51:09;149831.16;;;27.56;49.67
6853;BME280;3465;42.144;24.722;2023-04-25T09:53:37;150089.06;;;28.58;49.74
6853;BME280;3465;42.144;24.722;2023-04-25T09:56:07;150378.88;;;29.73;45.51
6853;BME280;3465;42.144;24.722;2023-04-25T09:58:34;150573.50;;;30.49;43.36
6853;BME280;3465;42.144;24.722;2023-04-25T10:01:05;150849.75;;;31.58;40.27
6853;BME280;3465;42.144;24.722;2023-04-25T10:03:32;151186.06;;;32.91;38.83
6853;BME280;3465;42.144;24.722;2023-04-25T10:06:23;151200.09;;;32.96;37.14
6853;BME280;3465;42.144;24.722;2023-04-25T10:08:50;151155.47;;;32.79;36.41
6853;BME280;3465;42.144;24.722;2023-04-25T10:11:16;150887.91;;;31.73;37.15
6853;BME280;3465;42.144;24.722;2023-04-25T10:13:43;151035.66;;;32.32;37.34
6853;BME280;3465;42.144;24.722;2023-04-25T10:16:08;151137.63;;;32.72;37.34
6853;BME280;3465;42.144;24.722;2023-04-25T10:18:34;150550.59;;;30.40;38.76
6853;BME280;3465;42.144;24.722;2023-04-25T10:21:04;150624.41;;;30.69;38.56
6853;BME280;3465;42.144;24.722;2023-04-25T10:23:31;150867.53;;;31.65;37.17
6853;BME280;3465;42.144;24.722;2023-04-25T10:25:57;150844.66;;;31.56;36.09
6853;BME280;3465;42.144;24.722;2023-04-25T10:28:26;150579.88;;;30.52;37.47
6853;BME280;3465;42.144;24.722;2023-04-25T10:31:01;150718.59;;;31.07;38.75
6853;BME280;3465;42.144;24.722;2023-04-25T10:33:38;150965.63;;;32.04;34.83
6853;BME280;3465;42.144;24.722;2023-04-25T10:36:17;151186.06;;;32.91;34.52
6853;BME280;3465;42.144;24.722;2023-04-25T10:38:45;151466.53;;;34.01;31.95
6853;BME280;3465;42.144;24.722;2023-04-25T10:41:11;151452.53;;;33.96;31.34
6853;BME280;3465;42.144;24.722;2023-04-25T10:46:29;151550.72;;;34.34;30.52
6853;BME280;3465;42.144;24.722;2023-04-25T10:49:00;151311.03;;;33.40;31.21
6853;BME280;3465;42.144;24.722;2023-04-25T10:51:35;151152.88;;;32.78;31.50
6853;BME280;3465;42.144;24.722;2023-04-25T10:54:02;150859.91;;;31.62;33.98
6853;BME280;3465;42.144;24.722;2023-04-25T10:56:33;150977.06;;;32.08;33.00
6853;BME280;3465;42.144;24.722;2023-04-25T10:59:04;150944.00;;;31.95;33.33
6853;BME280;3465;42.144;24.722;2023-04-25T11:01:45;151216.66;;;33.03;31.10
6853;BME280;3465;42.144;24.722;2023-04-25T11:09:29;151726.84;;;35.04;29.82
6853;BME280;3465;42.144;24.722;2023-04-25T11:11:59;151888.94;;;35.67;26.60
6853;BME280;3465;42.144;24.722;2023-04-25T11:14:26;151820.03;;;35.40;26.89
6853;BME280;3465;42.144;24.722;2023-04-25T11:16:56;151780.44;;;35.25;25.94
6853;BME280;3465;42.144;24.722;2023-04-25T11:19:22;151751.09;;;35.13;27.28
6853;BME280;3465;42.144;24.722;2023-04-25T11:21:49;151230.66;;;33.08;28.42
6853;BME280;3465;42.144;24.722;2023-04-25T11:24:16;151201.34;;;32.97;29.71
6853;BME280;3465;42.144;24.722;2023-04-25T11:26:42;151149.06;;;32.76;29.93
6853;BME280;3465;42.144;24.722;2023-04-25T11:29:08;150903.22;;;31.79;30.88
6853;BME280;3465;42.144;24.722;2023-04-25T11:31:33;150801.38;;;31.39;31.83
6853;BME280;3465;42.144;24.722;2023-04-25T11:33:59;150648.63;;;30.79;32.25
6853;BME280;3465;42.144;24.722;2023-04-25T11:36:26;150737.69;;;31.14;33.52
6853;BME280;3465;42.144;24.722;2023-04-25T11:38:52;150816.66;;;31.45;32.03
6853;BME280;3465;42.144;24.722;2023-04-25T11:41:18;150466.63;;;30.07;32.78
6853;BME280;3465;42.144;24.722;2023-04-25T11:43:44;150181.81;;;28.95;34.58
6853;BME280;3465;42.144;24.722;2023-04-25T11:46:10;150362.34;;;29.66;33.28
6853;BME280;3465;42.144;24.722;2023-04-25T11:48:42;150573.50;;;30.49;33.18
6853;BME280;3465;42.144;24.722;2023-04-25T11:51:08;150679.16;;;30.91;32.37
6853;BME280;3465;42.144;24.722;2023-04-25T11:53:34;150859.91;;;31.62;31.24
6853;BME280;3465;42.144;24.722;2023-04-25T11:56:00;151057.38;;;32.40;30.72
6853;BME280;3465;42.144;24.722;2023-04-25T11:58:26;151001.25;;;32.18;33.60
6853;BME280;3465;42.144;24.722;2023-04-25T12:00:52;150649.91;;;30.80;35.99
6853;BME280;3465;42.144;24.722;2023-04-25T12:03:18;150471.69;;;30.09;37.02
6853;BME280;3465;42.144;24.722;2023-04-25T12:05:45;150317.81;;;29.49;38.27
6853;BME280;3465;42.144;24.722;2023-04-25T12:08:15;149890.81;;;27.80;40.57
6853;BME280;3465;42.144;24.722;2023-04-25T12:10:43;149444.09;;;26.03;44.09
6853;BME280;3465;42.144;24.722;2023-04-25T12:13:23;149327.44;;;25.57;47.78
6853;BME280;3465;42.144;24.722;2023-04-25T12:15:49;149018.19;;;24.35;50.67
6853;BME280;3465;42.144;24.722;2023-04-25T12:18:14;149084.03;;;24.61;51.32
6853;BME280;3465;42.144;24.722;2023-04-25T12:20:41;149073.94;;;24.57;50.65
6853;BME280;3465;42.144;24.722;2023-04-25T12:23:07;149110.69;;;24.71;51.81
6853;BME280;3465;42.144;24.722;2023-04-25T12:25:39;149095.44;;;24.65;50.85
6853;BME280;3465;42.144;24.722;2023-04-25T12:28:24;149253.88;;;25.28;50.73
6853;BME280;3465;42.144;24.722;2023-04-25T12:33:17;149728.31;;;27.16;45.75
6853;BME280;3465;42.144;24.722;2023-04-25T12:35:42;149483.44;;;26.19;45.59
6853;BME280;3465;42.144;24.722;2023-04-25T12:38:08;149422.53;;;25.95;47.42
6853;BME280;3465;42.144;24.722;2023-04-25T12:40:33;149464.41;;;26.11;47.84
6853;BME280;3465;42.144;24.722;2023-04-25T12:42:59;149422.53;;;25.95;49.13
6853;BME280;3465;42.144;24.722;2023-04-25T12:45:24;149375.59;;;25.76;49.15
6853;BME280;3465;42.144;24.722;2023-04-25T12:47:50;149290.66;;;25.43;50.35
6853;BME280;3465;42.144;24.722;2023-04-25T12:50:15;149290.66;;;25.43;48.60
6853;BME280;3465;42.144;24.722;2023-04-25T12:52:40;149303.34;;;25.48;49.82
6853;BME280;3465;42.144;24.722;2023-04-25T12:55:06;149321.13;;;25.55;48.53
6853;BME280;3465;42.144;24.722;2023-04-25T12:57:31;149378.16;;;25.77;48.62
6853;BME280;3465;42.144;24.722;2023-04-25T12:59:57;149323.63;;;25.56;49.79
6853;BME280;3465;42.144;24.722;2023-04-25T13:02:22;149357.88;;;25.69;47.76
6853;BME280;3465;42.144;24.722;2023-04-25T13:04:48;149256.44;;;25.29;47.25